Time;durP1;ratioP1;P1;durP2;ratioP2;P2;SDS_P1;SDS_P2;PMS_P1;PMS_P2;Temp;Humidity;BMP_temperature;BMP_pressure;BME280_temperature;BME280_humidity;BME280_pressure;Samples;Min_cycle;Max_cycle;Signal;HPM_P1;HPM_P2
2022/02/15 00:01:03;;;;;;;;;;;;;;;18.54;37.81;101566.31;5079550;28;827;-65
2022/02/15 00:03:28;;;;;;;;;;;;;;;17.96;38.85;101552.44;5078917;28;784;-65
2022/02/15 00:05:54;;;;;;;;;;;;;;;16.18;42.71;101548.25;5078880;28;864;-65
2022/02/15 00:08:19;;;;;;;;;;;;;;;16.73;41.87;101543.78;5079154;28;837;-65
2022/02/15 00:10:47;;;;;;;;;;;;;;;18.65;37.56;101534.16;5079039;28;1157;-66
2022/02/15 00:13:13;;;;;;;;;;;;;;;18.77;37.25;101531.16;5111117;28;1972;-65
2022/02/15 00:15:38;;;;;;;;;;;;;;;18.88;36.79;101540.31;5078391;28;966;-66
2022/02/15 00:18:03;;;;;;;;;;;;;;;18.26;38.37;101534.50;5078851;28;768;-65
2022/02/15 00:20:29;;;;;;;;;;;;;;;17.01;40.81;101529.03;5079109;28;893;-66
2022/02/15 00:22:55;;;;;;;;;;;;;;;15.44;44.31;101535.53;5078844;28;818;-65
2022/02/15 00:25:21;;;;;;;;;;;;;;;17.63;39.84;101529.63;5078769;28;762;-66
2022/02/15 00:27:47;;;;;;;;;;;;;;;18.52;37.31;101521.66;5079052;28;832;-65
2022/02/15 00:30:12;;;;;;;;;;;;;;;18.02;38.88;101526.66;5078026;28;1391;-65
2022/02/15 00:32:38;;;;;;;;;;;;;;;17.83;39.21;101522.63;5078174;28;1875;-65
2022/02/15 00:35:03;;;;;;;;;;;;;;;16.17;42.44;101524.63;5079049;28;757;-65
2022/02/15 00:37:29;;;;;;;;;;;;;;;16.82;41.33;101511.22;5078704;28;860;-66
2022/02/15 00:39:54;;;;;;;;;;;;;;;18.70;37.33;101520.38;5110937;28;818;-66
2022/02/15 00:42:21;;;;;;;;;;;;;;;17.89;38.77;101510.56;5078346;28;746;-67
2022/02/15 00:44:46;;;;;;;;;;;;;;;18.42;38.11;101510.63;5078055;28;803;-66
2022/02/15 00:47:12;;;;;;;;;;;;;;;17.11;40.46;101509.09;5076839;28;1500;-67
2022/02/15 00:49:37;;;;;;;;;;;;;;;15.67;43.58;101516.19;5078558;28;754;-67
2022/02/15 00:52:03;;;;;;;;;;;;;;;17.53;39.86;101507.53;5078389;28;1353;-67
2022/02/15 00:54:28;;;;;;;;;;;;;;;18.55;37.54;101504.63;5076680;28;1242;-66
2022/02/15 00:56:54;;;;;;;;;;;;;;;18.22;38.47;101503.09;5077174;28;1692;-66
2022/02/15 00:59:19;;;;;;;;;;;;;;;18.35;37.82;101497.09;5110681;28;854;-66
2022/02/15 01:01:45;;;;;;;;;;;;;;;16.49;41.54;101510.25;5077798;28;1021;-67
2022/02/15 01:04:10;;;;;;;;;;;;;;;16.33;42.49;101501.00;5109635;27;2204;-66
2022/02/15 01:06:36;;;;;;;;;;;;;;;18.50;37.80;101498.28;5071892;28;857;-65
2022/02/15 01:09:01;;;;;;;;;;;;;;;18.06;38.26;101494.75;5110360;28;1386;-66
2022/02/15 01:11:27;;;;;;;;;;;;;;;18.20;38.40;101486.00;5078049;28;1090;-66
2022/02/15 01:13:52;;;;;;;;;;;;;;;17.17;40.05;101485.22;5110582;28;1910;-64
2022/02/15 01:16:18;;;;;;;;;;;;;;;15.64;43.60;101478.31;5109755;28;879;-65
2022/02/15 01:18:43;;;;;;;;;;;;;;;17.90;39.11;101490.22;5072100;28;1464;-65
2022/02/15 01:21:09;;;;;;;;;;;;;;;18.79;37.15;101477.44;5076753;28;1309;-65
2022/02/15 01:23:34;;;;;;;;;;;;;;;19.03;36.60;101484.38;5077628;28;814;-64
2022/02/15 01:26:00;;;;;;;;;;;;;;;18.50;37.37;101484.50;5110099;28;1145;-64
2022/02/15 01:28:25;;;;;;;;;;;;;;;17.86;38.76;101480.81;5110532;28;1108;-64
2022/02/15 01:30:52;;;;;;;;;;;;;;;16.30;41.91;101483.13;5110111;28;1293;-67
2022/02/15 01:33:18;;;;;;;;;;;;;;;16.96;41.27;101476.78;5077065;28;1910;-65
2022/02/15 01:35:43;;;;;;;;;;;;;;;18.73;37.00;101467.50;5077472;28;798;-65
2022/02/15 01:38:11;;;;;;;;;;;;;;;18.03;38.70;101478.75;5110685;28;1265;-65
2022/02/15 01:40:37;;;;;;;;;;;;;;;18.65;37.11;101479.06;5077352;28;793;-65
2022/02/15 01:43:03;;;;;;;;;;;;;;;17.14;40.19;101477.47;5077736;28;781;-65
2022/02/15 01:45:28;;;;;;;;;;;;;;;15.68;43.32;101476.72;5109574;28;1092;-65
2022/02/15 01:47:54;;;;;;;;;;;;;;;17.68;39.54;101480.13;5076645;28;868;-65
2022/02/15 01:50:20;;;;;;;;;;;;;;;18.48;37.33;101465.47;5092780;28;1274;-65
2022/02/15 01:52:46;;;;;;;;;;;;;;;18.05;38.37;101468.31;5109795;28;1898;-65
2022/02/15 01:55:12;;;;;;;;;;;;;;;18.11;38.33;101464.47;5109433;28;1164;-65
2022/02/15 01:57:38;;;;;;;;;;;;;;;16.40;41.70;101460.47;5076536;28;833;-65
2022/02/15 02:00:18;;;;;;;;;;;;;;;16.76;41.42;101467.19;5108792;28;1925;-65
2022/02/15 02:02:51;;;;;;;;;;;;;;;18.68;37.19;101467.47;5075391;28;1411;-65
2022/02/15 02:08:06;;;;;;;;;;;;;;;18.04;38.48;101482.34;5075230;28;1276;-66
2022/02/15 02:10:38;;;;;;;;;;;;;;;16.41;41.84;101476.69;5075755;28;1139;-65
2022/02/15 02:13:07;;;;;;;;;;;;;;;17.13;40.36;101465.69;5102701;28;1909;-65
2022/02/15 02:15:33;;;;;;;;;;;;;;;18.79;37.14;101460.09;5108748;28;1432;-66
2022/02/15 02:18:33;;;;;;;;;;;;;;;17.94;38.73;101472.09;5074098;28;1250;-66
2022/02/15 02:21:02;;;;;;;;;;;;;;;18.03;38.15;101470.50;5108906;28;1230;-65
2022/02/15 02:23:28;;;;;;;;;;;;;;;16.35;41.83;101477.69;5109134;28;1148;-65
2022/02/15 02:25:58;;;;;;;;;;;;;;;17.00;40.79;101466.09;5108898;28;1226;-67
2022/02/15 02:28:26;;;;;;;;;;;;;;;18.79;36.91;101469.16;5109302;28;1224;-66
2022/02/15 02:30:51;;;;;;;;;;;;;;;17.88;38.70;101473.13;5074516;28;1312;-65
2022/02/15 02:33:17;;;;;;;;;;;;;;;18.09;38.40;101480.44;5076449;28;1897;-66
2022/02/15 02:35:42;;;;;;;;;;;;;;;16.77;40.71;101482.59;5076898;28;750;-65
2022/02/15 02:38:08;;;;;;;;;;;;;;;15.85;43.16;101473.16;5108897;28;1332;-65
2022/02/15 02:40:33;;;;;;;;;;;;;;;18.19;37.99;101476.06;5076906;28;784;-66
2022/02/15 02:43:02;;;;;;;;;;;;;;;18.07;38.18;101468.88;5109141;28;1085;-66
2022/02/15 02:45:28;;;;;;;;;;;;;;;18.36;37.53;101484.97;5075767;28;836;-66
2022/02/15 02:47:54;;;;;;;;;;;;;;;17.73;38.66;101482.13;5062098;28;1272;-65
2022/02/15 02:50:21;;;;;;;;;;;;;;;16.04;42.28;101479.19;5075158;28;1091;-66
2022/02/15 02:52:47;;;;;;;;;;;;;;;17.27;40.24;101477.06;5090661;28;1973;-65
2022/02/15 02:55:15;;;;;;;;;;;;;;;18.77;36.63;101476.84;5108658;28;1376;-65
2022/02/15 02:57:41;;;;;;;;;;;;;;;18.01;38.46;101480.13;5108939;28;1124;-65
2022/02/15 03:00:08;;;;;;;;;;;;;;;18.51;37.27;101473.22;5074649;28;1239;-64
2022/02/15 03:02:53;;;;;;;;;;;;;;;16.72;40.81;101482.53;5075709;28;1445;-64
2022/02/15 03:05:19;;;;;;;;;;;;;;;15.90;43.06;101489.69;5108288;28;1549;-64
2022/02/15 03:07:45;;;;;;;;;;;;;;;18.23;38.06;101493.72;5075506;28;732;-64
2022/02/15 03:10:11;;;;;;;;;;;;;;;18.08;38.00;101486.22;5091670;28;1224;-64
2022/02/15 03:12:38;;;;;;;;;;;;;;;18.93;36.37;101479.72;5076051;28;1909;-64
2022/02/15 03:15:03;;;;;;;;;;;;;;;18.28;37.56;101480.81;5108005;28;1494;-64
2022/02/15 03:17:33;;;;;;;;;;;;;;;16.48;41.45;101486.63;5108224;28;1235;-66
2022/02/15 03:19:58;;;;;;;;;;;;;;;16.60;41.32;101498.31;5108732;28;1140;-63
2022/02/15 03:22:25;;;;;;;;;;;;;;;18.61;37.15;101483.44;5108112;28;1611;-64
2022/02/15 03:24:51;;;;;;;;;;;;;;;18.05;38.22;101498.59;5108575;28;1909;-63
2022/02/15 03:27:17;;;;;;;;;;;;;;;18.38;37.57;101491.03;5108157;28;1110;-63
2022/02/15 03:29:42;;;;;;;;;;;;;;;17.21;39.81;101500.13;5075215;28;840;-66
2022/02/15 03:32:09;;;;;;;;;;;;;;;15.64;43.60;101502.97;5074421;28;1281;-64
2022/02/15 03:34:36;;;;;;;;;;;;;;;17.89;38.55;101505.06;5074822;28;1321;-65
2022/02/15 03:37:02;;;;;;;;;;;;;;;18.42;37.13;101502.34;5108068;28;1137;-66
2022/02/15 03:39:29;;;;;;;;;;;;;;;18.25;37.70;101500.63;5091310;28;1125;-65
2022/02/15 03:44:44;;;;;;;;;;;;;;;16.34;41.59;101506.22;5074017;28;1405;-65
2022/02/15 03:47:15;;;;;;;;;;;;;;;16.92;40.86;101497.63;5074417;28;1133;-66
2022/02/15 03:49:41;;;;;;;;;;;;;;;18.74;36.67;101493.94;5074555;28;1351;-65
2022/02/15 03:52:09;;;;;;;;;;;;;;;18.09;37.84;101498.88;5108454;28;1124;-64
2022/02/15 03:54:35;;;;;;;;;;;;;;;18.98;36.20;101493.47;5107828;28;1941;-65
2022/02/15 03:57:01;;;;;;;;;;;;;;;17.52;38.71;101490.22;5074262;28;1230;-62
2022/02/15 03:59:29;;;;;;;;;;;;;;;16.06;42.31;101491.59;5074203;28;1286;-63
2022/02/15 04:01:55;;;;;;;;;;;;;;;17.27;40.06;101504.56;5105338;28;1168;-63
2022/02/15 04:04:20;;;;;;;;;;;;;;;18.74;36.65;101493.94;5075612;28;818;-62
2022/02/15 04:06:47;;;;;;;;;;;;;;;18.01;38.12;101500.22;5107805;28;1225;-61
2022/02/15 04:09:12;;;;;;;;;;;;;;;18.67;36.64;101504.38;5107891;28;1113;-61
2022/02/15 04:11:38;;;;;;;;;;;;;;;17.08;39.97;101502.19;5107892;28;1176;-62
2022/02/15 04:14:06;;;;;;;;;;;;;;;15.76;42.86;101497.41;5074007;28;1996;-62
2022/02/15 04:16:34;;;;;;;;;;;;;;;17.76;38.85;101493.41;5090930;28;1101;-63
2022/02/15 04:18:59;;;;;;;;;;;;;;;18.46;36.91;101482.25;5107908;28;1161;-62
2022/02/15 04:21:25;;;;;;;;;;;;;;;18.32;37.61;101472.03;5103151;28;1578;-63
2022/02/15 04:23:51;;;;;;;;;;;;;;;18.24;37.53;101465.94;5094327;28;1198;-62
2022/02/15 04:26:17;;;;;;;;;;;;;;;16.55;40.96;101468.03;5103572;28;1261;-63
2022/02/15 04:28:43;;;;;;;;;;;;;;;16.37;41.66;101470.03;5110998;28;953;-61
2022/02/15 04:31:19;;;;;;;;;;;;;;;18.51;37.24;101483.38;5111158;28;1468;-63
2022/02/15 04:33:45;;;;;;;;;;;;;;;17.89;38.28;101477.53;5110819;28;1977;-63
2022/02/15 04:36:11;;;;;;;;;;;;;;;18.39;37.25;101470.69;5108212;28;1177;-60
2022/02/15 04:38:37;;;;;;;;;;;;;;;17.18;38.88;101473.13;5077461;28;1157;-57
2022/02/15 04:41:03;;;;;;;;;;;;;;;15.85;41.19;101484.13;5111467;28;1231;-62
2022/02/15 04:43:30;;;;;;;;;;;;;;;17.62;37.66;101478.44;5078543;28;816;-58
2022/02/15 04:45:59;;;;;;;;;;;;;;;18.51;35.59;101489.75;5110243;28;1348;-58
2022/02/15 04:48:24;;;;;;;;;;;;;;;18.37;35.91;101489.41;5111277;28;1305;-58
2022/02/15 04:50:50;;;;;;;;;;;;;;;18.52;35.71;101490.56;5093453;28;1085;-57
2022/02/15 04:53:16;;;;;;;;;;;;;;;16.87;38.95;101492.03;5111041;28;1976;-58
2022/02/15 04:55:42;;;;;;;;;;;;;;;15.77;41.60;101503.69;5111204;28;1101;-58
2022/02/15 04:58:07;;;;;;;;;;;;;;;18.07;36.65;101512.09;5077126;28;1182;-57
2022/02/15 05:00:37;;;;;;;;;;;;;;;18.13;36.20;101517.34;5110175;28;1517;-55
2022/02/15 05:03:08;;;;;;;;;;;;;;;18.49;35.87;101515.88;5076668;28;1392;-54
2022/02/15 05:05:33;;;;;;;;;;;;;;;18.09;36.45;101524.47;5110568;28;1200;-55
2022/02/15 05:07:59;;;;;;;;;;;;;;;16.30;40.28;101535.28;5077970;28;816;-56
2022/02/15 05:10:26;;;;;;;;;;;;;;;16.90;39.36;101532.72;5111034;28;1301;-54
2022/02/15 05:12:51;;;;;;;;;;;;;;;18.63;35.81;101528.06;5077547;28;1984;-55
2022/02/15 05:15:30;;;;;;;;;;;;;;;18.12;36.95;101526.69;5110898;28;1182;-54
2022/02/15 05:18:09;;;;;;;;;;;;;;;18.70;35.76;101525.88;5110358;28;1940;-56
2022/02/15 05:20:35;;;;;;;;;;;;;;;17.18;38.59;101519.84;5110233;28;1080;-54
2022/02/15 05:23:01;;;;;;;;;;;;;;;15.76;41.53;101529.47;5077923;28;1035;-54
2022/02/15 05:25:31;;;;;;;;;;;;;;;17.61;38.15;101531.78;5076460;28;1350;-53
2022/02/15 05:27:58;;;;;;;;;;;;;;;18.44;35.86;101523.03;5077466;28;766;-56
2022/02/15 05:30:24;;;;;;;;;;;;;;;18.12;37.09;101529.44;5110196;28;1204;-55
2022/02/15 05:33:14;;;;;;;;;;;;;;;18.11;36.82;101535.22;5076147;28;1974;-56
2022/02/15 05:35:50;;;;;;;;;;;;;;;16.34;40.49;101527.34;5104243;28;1217;-53
2022/02/15 05:38:17;;;;;;;;;;;;;;;16.93;39.79;101527.56;5109989;28;1144;-55
2022/02/15 05:40:45;;;;;;;;;;;;;;;18.73;35.67;101536.38;5109788;28;1456;-55
2022/02/15 05:43:13;;;;;;;;;;;;;;;17.93;37.25;101539.22;5077273;28;809;-55
2022/02/15 05:45:41;;;;;;;;;;;;;;;18.56;36.00;101527.47;5109979;28;1171;-57
2022/02/15 05:48:11;;;;;;;;;;;;;;;17.00;39.07;101532.03;5109860;28;1415;-54
2022/02/15 05:50:51;;;;;;;;;;;;;;;15.84;42.09;101540.06;5109481;28;1093;-56
2022/02/15 05:53:22;;;;;;;;;;;;;;;18.38;36.38;101548.84;5109955;28;1909;-54
2022/02/15 05:55:52;;;;;;;;;;;;;;;18.23;36.44;101543.28;5075900;28;1323;-56
2022/02/15 05:58:22;;;;;;;;;;;;;;;18.58;35.67;101542.66;5075972;28;1134;-55
2022/02/15 06:00:49;;;;;;;;;;;;;;;17.71;37.45;101545.66;5109626;28;1148;-54
2022/02/15 06:06:00;;;;;;;;;;;;;;;17.81;37.45;101546.81;5075325;28;1331;-57
2022/02/15 06:08:27;;;;;;;;;;;;;;;18.54;35.67;101555.28;5109503;28;1152;-59
2022/02/15 06:10:57;;;;;;;;;;;;;;;18.44;35.91;101556.06;5076152;28;1240;-56
2022/02/15 06:13:33;;;;;;;;;;;;;;;18.48;35.74;101553.59;5109385;28;1983;-54
2022/02/15 06:16:04;;;;;;;;;;;;;;;16.58;39.46;101553.47;5108660;28;1308;-56
2022/02/15 06:18:34;;;;;;;;;;;;;;;16.48;40.18;101549.75;5075326;28;971;-56
2022/02/15 06:21:03;;;;;;;;;;;;;;;18.61;35.58;101552.31;5108702;28;1337;-56
2022/02/15 06:23:29;;;;;;;;;;;;;;;18.10;36.34;101550.94;5109423;28;1170;-56
2022/02/15 06:26:04;;;;;;;;;;;;;;;18.45;35.79;101545.88;5075646;28;1146;-56
2022/02/15 06:28:50;;;;;;;;;;;;;;;17.19;38.06;101541.56;5075907;28;1209;-57
2022/02/15 06:31:18;;;;;;;;;;;;;;;15.77;41.41;101547.56;5108860;28;1216;-56
2022/02/15 06:33:44;;;;;;;;;;;;;;;17.99;36.87;101543.66;5109182;28;1921;-56
2022/02/15 06:36:14;;;;;;;;;;;;;;;18.41;35.70;101540.09;5109234;28;1112;-56
2022/02/15 06:38:39;;;;;;;;;;;;;;;18.30;36.30;101532.88;5076660;28;797;-56
2022/02/15 06:41:11;;;;;;;;;;;;;;;18.08;36.52;101541.28;5075148;28;1276;-56
2022/02/15 06:43:47;;;;;;;;;;;;;;;16.32;40.33;101546.81;5086231;28;1440;-58
2022/02/15 06:46:15;;;;;;;;;;;;;;;17.29;38.61;101538.09;5075607;28;1276;-60
2022/02/15 06:48:40;;;;;;;;;;;;;;;19.05;35.26;101546.41;5074912;28;1279;-61
2022/02/15 06:51:06;;;;;;;;;;;;;;;19.03;35.00;101539.50;5104579;28;1498;-64
2022/02/15 06:53:54;;;;;;;;;;;;;;;18.84;35.64;101536.41;5078903;28;1917;-63
2022/02/15 06:56:22;;;;;;;;;;;;;;;17.82;37.22;101524.53;5075016;28;1226;-65
2022/02/15 06:58:49;;;;;;;;;;;;;;;16.36;40.60;101531.50;5107845;28;1474;-60
2022/02/15 07:01:21;;;;;;;;;;;;;;;15.97;41.80;101530.66;5072956;28;1250;-60
2022/02/15 07:03:49;;;;;;;;;;;;;;;18.57;36.34;101523.63;5073828;28;1357;-58
2022/02/15 07:06:14;;;;;;;;;;;;;;;18.12;36.98;101521.19;5104295;28;1288;-62
2022/02/15 07:08:43;;;;;;;;;;;;;;;18.17;37.06;101525.06;5104337;28;1528;-61
2022/02/15 07:11:08;;;;;;;;;;;;;;;17.14;38.61;101526.94;5058406;28;1300;-61
2022/02/15 07:13:35;;;;;;;;;;;;;;;15.91;41.68;101527.00;5103475;28;2058;-61
2022/02/15 07:16:02;;;;;;;;;;;;;;;18.40;36.67;101532.91;5088557;28;1241;-63
2022/02/15 07:18:29;;;;;;;;;;;;;;;18.38;36.52;101526.03;5073321;28;1213;-70
2022/02/15 07:21:26;;;;;;;;;;;;;;;18.58;36.16;101528.03;5072427;28;1424;-62
2022/02/15 07:24:24;;;;;;;;;;;;;;;17.10;38.79;101530.22;5073947;28;1260;-60
2022/02/15 07:27:08;;;;;;;;;;;;;;;15.91;41.89;101546.22;5073422;28;1232;-67
2022/02/15 07:29:44;;;;;;;;;;;;;;;18.47;36.26;101544.50;5071817;28;1626;-60
2022/02/15 07:32:23;;;;;;;;;;;;;;;18.29;36.55;101551.31;5106583;28;1973;-63
2022/02/15 07:34:52;;;;;;;;;;;;;;;18.13;37.17;101533.88;5073659;28;1161;-61
2022/02/15 07:37:18;;;;;;;;;;;;;;;17.07;38.99;101547.22;5074604;28;1096;-62
2022/02/15 07:39:44;;;;;;;;;;;;;;;15.83;41.96;101544.72;5077442;28;1368;-62
2022/02/15 07:42:09;;;;;;;;;;;;;;;18.25;36.72;101541.91;5074856;28;1195;-65
2022/02/15 07:44:40;;;;;;;;;;;;;;;18.43;36.65;101554.41;5073347;28;1306;-62
2022/02/15 07:47:05;;;;;;;;;;;;;;;18.16;36.94;101543.53;5073789;28;1210;-66
2022/02/15 07:49:31;;;;;;;;;;;;;;;17.80;37.53;101545.97;5079874;28;1423;-67
2022/02/15 07:51:57;;;;;;;;;;;;;;;16.09;41.19;101539.63;5074096;28;1317;-61
2022/02/15 07:54:23;;;;;;;;;;;;;;;17.44;38.77;101535.50;5074173;28;1909;-66
2022/02/15 07:56:48;;;;;;;;;;;;;;;18.95;35.51;101527.09;5077296;28;1330;-64
2022/02/15 07:59:13;;;;;;;;;;;;;;;19.25;35.02;101531.88;5077981;28;1361;-65
2022/02/15 08:01:39;;;;;;;;;;;;;;;18.76;35.92;101526.72;5077458;28;1326;-66
2022/02/15 08:04:05;;;;;;;;;;;;;;;17.98;37.29;101536.53;5078030;28;1310;-66
2022/02/15 08:06:33;;;;;;;;;;;;;;;16.46;40.21;101538.22;5105316;28;1171;-64
2022/02/15 08:08:58;;;;;;;;;;;;;;;16.72;40.36;101537.47;5077087;28;1281;-59
2022/02/15 08:11:24;;;;;;;;;;;;;;;18.80;35.88;101523.19;5077529;28;1288;-63
2022/02/15 08:13:51;;;;;;;;;;;;;;;18.47;36.44;101533.50;5079620;28;1973;-65
2022/02/15 08:16:17;;;;;;;;;;;;;;;18.46;37.15;101531.00;5081765;28;1206;-65
2022/02/15 08:18:42;;;;;;;;;;;;;;;17.32;39.66;101529.34;5072378;28;1345;-67
2022/02/15 08:21:10;;;;;;;;;;;;;;;16.02;42.52;101534.31;5073709;28;1269;-59
2022/02/15 08:23:37;;;;;;;;;;;;;;;18.15;38.30;101519.03;5075996;28;1341;-57
2022/02/15 08:26:03;;;;;;;;;;;;;;;18.96;36.38;101518.56;5076943;28;1502;-63
2022/02/15 08:28:28;;;;;;;;;;;;;;;18.35;37.75;101519.13;5075784;28;1146;-59
2022/02/15 08:30:53;;;;;;;;;;;;;;;18.15;38.19;101517.09;5107948;28;1256;-66
2022/02/15 08:33:19;;;;;;;;;;;;;;;16.56;41.07;101527.38;5077231;28;1967;-65
2022/02/15 08:35:44;;;;;;;;;;;;;;;16.54;41.57;101521.31;5077074;28;1546;-63
2022/02/15 08:38:10;;;;;;;;;;;;;;;18.87;36.60;101519.31;5077315;28;1140;-65
2022/02/15 08:40:35;;;;;;;;;;;;;;;18.40;37.55;101510.06;5079299;28;1430;-67
2022/02/15 08:43:01;;;;;;;;;;;;;;;18.48;37.48;101512.28;5077785;28;1518;-65
2022/02/15 08:45:26;;;;;;;;;;;;;;;17.43;39.20;101517.34;5076672;28;1546;-63
2022/02/15 08:47:52;;;;;;;;;;;;;;;16.02;42.26;101515.13;5076363;28;1203;-63
2022/02/15 08:50:17;;;;;;;;;;;;;;;17.98;38.36;101511.75;5077060;28;1330;-62
2022/02/15 08:52:44;;;;;;;;;;;;;;;18.70;36.82;101503.84;5079105;28;1886;-62
2022/02/15 08:55:09;;;;;;;;;;;;;;;18.14;37.82;101504.41;5077964;28;1294;-62
2022/02/15 08:57:36;;;;;;;;;;;;;;;17.90;38.08;101498.47;5076701;28;1341;-63
2022/02/15 09:00:02;;;;;;;;;;;;;;;16.36;41.29;101504.06;5078110;28;1217;-61
2022/02/15 09:02:27;;;;;;;;;;;;;;;17.31;39.77;101511.19;5076096;28;1298;-63
2022/02/15 09:04:53;;;;;;;;;;;;;;;18.97;36.14;101498.19;5076864;28;1609;-62
2022/02/15 09:07:18;;;;;;;;;;;;;;;18.27;37.45;101501.19;5079023;28;1504;-60
2022/02/15 09:09:44;;;;;;;;;;;;;;;18.18;37.83;101494.53;5077208;28;1148;-63
2022/02/15 09:12:09;;;;;;;;;;;;;;;16.89;40.20;101492.63;5079013;28;1588;-61
2022/02/15 09:14:35;;;;;;;;;;;;;;;16.40;41.85;101502.47;5079230;28;1925;-61
2022/02/15 09:17:00;;;;;;;;;;;;;;;18.64;37.03;101488.41;5076445;28;1098;-62
2022/02/15 09:19:27;;;;;;;;;;;;;;;18.40;37.36;101497.13;5080566;28;1387;-60
2022/02/15 09:21:53;;;;;;;;;;;;;;;18.34;37.58;101480.84;5076726;28;1435;-57
2022/02/15 09:24:18;;;;;;;;;;;;;;;17.40;39.31;101482.16;5077384;28;1321;-57
2022/02/15 09:26:44;;;;;;;;;;;;;;;16.00;42.54;101475.28;5080711;28;1375;-57
2022/02/15 09:29:12;;;;;;;;;;;;;;;18.28;37.70;101475.31;5074100;28;1282;-57
2022/02/15 09:31:40;;;;;;;;;;;;;;;18.74;36.49;101480.16;5075081;28;1528;-58
2022/02/15 09:34:07;;;;;;;;;;;;;;;18.31;37.84;101476.69;5075869;28;1964;-58
2022/02/15 09:36:33;;;;;;;;;;;;;;;17.91;38.60;101475.41;5075899;28;1177;-58
2022/02/15 09:38:58;;;;;;;;;;;;;;;16.42;41.92;101474.75;5080589;28;1260;-58
2022/02/15 09:41:24;;;;;;;;;;;;;;;16.78;41.33;101469.69;5075401;28;1213;-57
2022/02/15 09:43:49;;;;;;;;;;;;;;;18.94;36.79;101476.69;5068566;28;1800;-58
2022/02/15 09:46:15;;;;;;;;;;;;;;;18.47;37.34;101461.91;5075900;28;1346;-59
2022/02/15 09:48:41;;;;;;;;;;;;;;;18.27;37.76;101470.06;5076902;28;865;-58
2022/02/15 09:51:06;;;;;;;;;;;;;;;17.45;39.26;101457.44;5076558;28;773;-59
2022/02/15 09:53:32;;;;;;;;;;;;;;;16.07;42.38;101454.84;5076261;28;1968;-58
2022/02/15 09:55:58;;;;;;;;;;;;;;;17.83;38.75;101459.34;5066114;28;1373;-59
2022/02/15 09:58:23;;;;;;;;;;;;;;;18.96;36.41;101441.38;5077297;28;1511;-59
2022/02/15 10:00:49;;;;;;;;;;;;;;;18.22;37.81;101440.59;5077472;28;1372;-60
2022/02/15 10:03:15;;;;;;;;;;;;;;;17.95;38.31;101425.06;5109301;28;1423;-59
2022/02/15 10:05:40;;;;;;;;;;;;;;;16.62;41.21;101422.00;5082977;28;1519;-59
2022/02/15 10:08:06;;;;;;;;;;;;;;;16.41;42.09;101421.78;5075952;28;1165;-59
2022/02/15 10:10:32;;;;;;;;;;;;;;;18.59;37.06;101420.38;5076408;28;1458;-59
2022/02/15 10:13:04;;;;;;;;;;;;;;;18.33;37.50;101416.69;5073173;28;2236;-59
2022/02/15 10:15:31;;;;;;;;;;;;;;;17.87;38.43;101405.47;5070057;28;1487;-58
2022/02/15 10:18:06;;;;;;;;;;;;;;;17.02;40.10;101404.28;5077054;28;1609;-59
2022/02/15 10:20:32;;;;;;;;;;;;;;;15.67;43.06;101395.56;5076940;28;1090;-57
2022/02/15 10:23:13;;;;;;;;;;;;;;;17.96;38.53;101398.34;5076333;28;1537;-57
2022/02/15 10:25:38;;;;;;;;;;;;;;;18.33;37.49;101389.16;5074180;28;1136;-59
2022/02/15 10:28:20;;;;;;;;;;;;;;;17.76;38.89;101394.38;5076335;28;1310;-58
2022/02/15 10:30:52;;;;;;;;;;;;;;;17.13;39.99;101393.41;5067378;28;1649;-57
2022/02/15 10:33:18;;;;;;;;;;;;;;;15.77;42.90;101391.28;5074303;28;1973;-58
2022/02/15 10:35:56;;;;;;;;;;;;;;;17.78;38.78;101378.44;5072991;28;1392;-63
2022/02/15 10:38:49;;;;;;;;;;;;;;;18.57;36.84;101377.66;5071415;28;1535;-58
2022/02/15 10:41:16;;;;;;;;;;;;;;;17.87;38.53;101376.00;5066395;28;1986;-60
2022/02/15 10:43:42;;;;;;;;;;;;;;;17.80;38.70;101375.44;5073618;28;877;-59
2022/02/15 10:46:08;;;;;;;;;;;;;;;18.74;36.94;101364.44;5074530;28;804;-59
2022/02/15 10:48:34;;;;;;;;;;;;;;;19.29;35.67;101367.53;5075104;28;754;-59
2022/02/15 10:50:59;;;;;;;;;;;;;;;19.58;35.08;101360.56;5074989;28;786;-60
2022/02/15 10:53:25;;;;;;;;;;;;;;;19.80;34.64;101363.03;5075604;28;1909;-61
2022/02/15 10:55:50;;;;;;;;;;;;;;;19.94;34.69;101366.00;5106922;28;886;-59
2022/02/15 10:58:16;;;;;;;;;;;;;;;19.99;34.40;101369.56;5107421;28;836;-60
2022/02/15 11:00:42;;;;;;;;;;;;;;;20.11;34.12;101360.97;5068569;28;878;-60
2022/02/15 11:03:08;;;;;;;;;;;;;;;20.22;34.00;101352.63;5074802;28;1399;-60
2022/02/15 11:05:33;;;;;;;;;;;;;;;20.31;34.09;101349.00;5107909;28;801;-59
2022/02/15 11:08:01;;;;;;;;;;;;;;;20.46;33.57;101352.78;5074638;28;1201;-61
2022/02/15 11:10:31;;;;;;;;;;;;;;;20.49;33.79;101344.72;5082508;28;1275;-60
2022/02/15 11:12:57;;;;;;;;;;;;;;;20.62;33.45;101348.78;5075177;28;1967;-60
2022/02/15 11:15:23;;;;;;;;;;;;;;;20.71;33.35;101337.97;5075483;28;851;-60
2022/02/15 11:17:49;;;;;;;;;;;;;;;20.76;33.04;101331.56;5075058;28;842;-60
2022/02/15 11:20:15;;;;;;;;;;;;;;;20.83;33.05;101332.91;5075145;28;848;-60
2022/02/15 11:22:41;;;;;;;;;;;;;;;20.84;33.19;101329.00;5074990;28;910;-60
2022/02/15 11:25:07;;;;;;;;;;;;;;;20.97;32.81;101323.94;5075109;28;797;-61
2022/02/15 11:27:33;;;;;;;;;;;;;;;21.01;33.03;101322.25;5075594;28;1026;-60
2022/02/15 11:29:58;;;;;;;;;;;;;;;21.03;32.71;101320.03;5077508;28;879;-61
2022/02/15 11:32:26;;;;;;;;;;;;;;;21.08;32.82;101322.72;5078297;28;1052;-60
2022/02/15 11:34:52;;;;;;;;;;;;;;;21.06;33.02;101316.66;5078523;28;1906;-60
2022/02/15 11:37:19;;;;;;;;;;;;;;;21.19;32.88;101318.75;5079224;28;817;-60
2022/02/15 11:39:44;;;;;;;;;;;;;;;20.10;34.72;101315.13;5079286;28;749;-61
2022/02/15 11:42:17;;;;;;;;;;;;;;;19.89;35.23;101319.09;5111866;28;1384;-61
2022/02/15 11:44:42;;;;;;;;;;;;;;;20.65;33.84;101319.75;5079478;28;764;-60
2022/02/15 11:47:12;;;;;;;;;;;;;;;20.92;33.41;101313.75;5077946;28;1253;-59
2022/02/15 11:49:48;;;;;;;;;;;;;;;20.99;33.17;101314.25;5075030;28;1354;-60
2022/02/15 11:52:14;;;;;;;;;;;;;;;21.19;32.51;101307.69;5076288;28;1410;-56
2022/02/15 11:54:40;;;;;;;;;;;;;;;20.75;33.69;101305.03;5071510;28;2004;-57
2022/02/15 11:57:05;;;;;;;;;;;;;;;19.61;35.88;101313.09;5078815;28;1368;-59
2022/02/15 11:59:31;;;;;;;;;;;;;;;18.49;38.14;101306.59;5080166;28;1549;-62
2022/02/15 12:01:59;;;;;;;;;;;;;;;16.98;41.11;101307.00;5077605;28;1608;-61
2022/02/15 12:04:25;;;;;;;;;;;;;;;16.74;41.99;101307.31;5073653;28;1554;-60
2022/02/15 12:06:51;;;;;;;;;;;;;;;19.10;36.97;101314.06;5078258;28;1177;-63
2022/02/15 12:09:16;;;;;;;;;;;;;;;18.81;37.12;101301.63;5078055;28;776;-59
2022/02/15 12:11:46;;;;;;;;;;;;;;;18.38;38.03;101312.06;5078742;28;1212;-60
2022/02/15 12:14:12;;;;;;;;;;;;;;;17.37;40.17;101309.47;5077030;28;1906;-63
2022/02/15 12:16:41;;;;;;;;;;;;;;;15.97;43.27;101313.97;5077928;28;765;-66
2022/02/15 12:19:07;;;;;;;;;;;;;;;18.04;38.94;101309.78;5073768;28;1523;-58
2022/02/15 12:21:37;;;;;;;;;;;;;;;19.05;36.73;101314.88;5074505;28;1219;-64
2022/02/15 12:24:03;;;;;;;;;;;;;;;18.13;38.70;101318.34;5080960;28;1491;-59
2022/02/15 12:26:39;;;;;;;;;;;;;;;17.54;39.79;101322.19;5078096;28;771;-63
2022/02/15 12:29:05;;;;;;;;;;;;;;;16.06;42.66;101316.00;5083567;28;1397;-60
2022/02/15 12:31:30;;;;;;;;;;;;;;;17.54;40.11;101316.69;5077198;28;1013;-60
2022/02/15 12:33:56;;;;;;;;;;;;;;;18.96;36.94;101320.13;5079090;28;1909;-63
2022/02/15 12:36:21;;;;;;;;;;;;;;;18.08;38.65;101316.41;5085425;28;1293;-60
2022/02/15 12:38:46;;;;;;;;;;;;;;;17.76;39.33;101314.59;5076818;28;1112;-61
2022/02/15 12:41:13;;;;;;;;;;;;;;;16.14;42.49;101322.13;5058577;28;1266;-61
2022/02/15 12:43:39;;;;;;;;;;;;;;;16.93;41.38;101318.78;5077780;28;1340;-60
2022/02/15 12:46:06;;;;;;;;;;;;;;;19.06;36.71;101330.31;5071708;28;1460;-62
2022/02/15 12:48:32;;;;;;;;;;;;;;;18.16;38.46;101314.22;5077102;28;1262;-60
2022/02/15 12:50:57;;;;;;;;;;;;;;;17.84;39.01;101310.53;5053062;28;1354;-67
2022/02/15 12:53:24;;;;;;;;;;;;;;;16.47;41.83;101315.59;5075163;28;1910;-60
2022/02/15 12:55:50;;;;;;;;;;;;;;;16.52;42.45;101314.81;5077454;28;1519;-63
2022/02/15 12:58:15;;;;;;;;;;;;;;;18.76;37.31;101314.59;5078184;28;1400;-59